LYBE Airport Information

Runway Information
Runway 12 Length 11155 ft width 148 ft
Elevation 318 ft Threshold 0 ft Heading 122
Runway 30 Length 11155 ft Width 148 ft
Elevation 335 ft Threshold 1312 ft Heading 302
Airport Frequencies
Type APP Name APP Frequency 119.1 MHZ
Type ATIS Name INFO Frequency 122.925 MHZ
Type TWR Name TWR Frequency 118.1 MHZ
Airport Navaids
Type VOR-DME Name Beograd Frequency 112300 KHZ
Type NDB Name Beograd Frequency 316 KHZ
Type NDB Name Beograd Frequency 380 KHZ
Type NDB Name Beograd Frequency 355 KHZ
Airport Weather Information & NOTAM
ADDS - METARS form results

(0015 UTC 23 April 2019)
Data provider http://aviationweather.gov/metar/data/
 
METAR text: LYBE 230000Z 13021KT CAVOK 14/03 Q1014 NOSIG
Conditions at: LYBE (BELGRADE/SURCIN , CS) observed 0000 UTC 23 April 2019
Temperature: 14.0°C (57°F)
Dewpoint: 3.0°C (37°F) [RH = 47%]
Pressure (altimeter): 29.94 inches Hg (1014.0 mb)
Winds: from the SE (130 degrees) at 24 MPH (21 knots; 10.8 m/s)
Visibility: 6 or more miles (10+ km)
Ceiling: ceiling and visibility are OK
Clouds: unknown
Weather: no significant weather observed at this time

METAR text: LYBE 222330Z 13023KT CAVOK 14/03 Q1014 NOSIG
Conditions at: LYBE (BELGRADE/SURCIN , CS) observed 2330 UTC 22 April 2019
Temperature: 14.0°C (57°F)
Dewpoint: 3.0°C (37°F) [RH = 47%]
Pressure (altimeter): 29.94 inches Hg (1014.0 mb)
Winds: from the SE (130 degrees) at 26 MPH (23 knots; 11.8 m/s)
Visibility: 6 or more miles (10+ km)
Ceiling: ceiling and visibility are OK
Clouds: unknown
Weather: no significant weather observed at this time

Forecast for: LYBE (BELGRADE/SURCIN , CS)
Text: TAF LYBE 222300Z 2300/2324 12022KT CAVOK TX18/2314Z TN10/2305Z
Forecast period: 0000 UTC 23 April 2019 to 0000 UTC 24 April 2019
Forecast type: FROM: standard forecast or significant change
Winds: from the ESE (120 degrees) at 25 MPH (22 knots; 11.3 m/s)
Visibility: 6 or more miles 10+ km)
Ceiling: unknown
Clouds: missing
Weather: no significant weather forecast for this period
Text: TEMPO 2303/2308 RA
Forecast period: 0300 to 0800 UTC 23 April 2019
Forecast type: TEMPORARY: The following changes expected for less than half the time period
Visibility: missing
Ceiling: unknown
Clouds: missing
Weather: RA  (moderate rain)
Text: TEMPO 2308/2321 12025G40KT
Forecast period: 0800 to 2100 UTC 23 April 2019
Forecast type: TEMPORARY: The following changes expected for less than half the time period
Winds: from the ESE (120 degrees) at 29 MPH (25 knots; 12.9 m/s)
gusting to 46 MPH (40 knots; 20.6 m/s)
Visibility: missing
Ceiling: unknown
Clouds: missing
Weather: no significant weather forecast for this period